Pt. Reyes RCA field Weather observations

Data are for 10 minute period ending at time listed.
 Day   Time   Solar   Ave.   Ave.  Ave.  Vector    Max.   Stn.   Total 
  of    of     Rad.   Air    Rel.  Wind   Wind     Wind   Baro. Precip.
Year   Day            Temp.  Hum.  Speed  Dir.     Gust   Pres.        
2014   (PST)   W/m2    F      %     mph   deg.      mph    mb.    in.  
-----------------------------------------------------------------------
 263    3:30    0.0    61   96.9     3    185.2     4.3   1008.5  0.00  
 263    3:40    0.0    61   96.9     4    173.1     5.6   1008.1  0.00  
 263    3:50    0.0    61   96.8     3    175.5     4.3   1008.1  0.00  
 263    4:00    0.0    61   96.8     3    176.6     4.1   1008.5  0.00  
 263    4:10    0.0    61   96.8     3    194.8     4.2   1008.5  0.00  
 263    4:20    0.0    61   96.7     4    170.1     7.0   1008.5  0.00  
 263    4:30    0.0    61   96.6     5    167.0     7.3   1008.5  0.00  
 263    4:40    0.0    61   96.5     4    171.5     5.8   1008.5  0.00  
 263    4:50    0.0    61   96.5     5    174.8     6.4   1008.5  0.00  
 263    5:00    0.0    61   96.4     6    176.2     8.8   1008.8  0.00  
 263    5:10    0.0    61   96.3     5    151.3     6.4   1008.8  0.00  
 263    5:20    0.0    61   96.3     4    147.9     5.9   1008.8  0.00  
 263    5:30    0.0    61   96.4     6    156.7     8.8   1008.8  0.00  
 263    5:40    0.0    61   96.4     5    148.6     8.1   1008.8  0.00  
 263    5:50    0.0    61   96.4     5    154.1     7.5   1008.8  0.00  
 263    6:00    0.0    61   96.4     6    151.4     8.1   1009.1  0.00  
 263    6:10    0.0    61   96.4     7    149.2     8.8   1009.1  0.00  
 263    6:20    3.0    61   96.2     4    148.7     6.9   1009.1  0.00  
 263    6:30    5.0    61   96.1     5    155.4     8.0   1009.5  0.00  
 263    6:40    7.0    61   96.0     5    148.7     7.0   1009.5  0.00  
 263    6:50   11.0    61   96.0     4    173.1     7.3   1009.5  0.00  
 263    7:00   16.0    61   95.9     6    181.0     8.5   1009.5  0.00  
 263    7:10   17.0    61   95.8     6    165.4     8.0   1009.5  0.00  
 263    7:20   26.0    61   95.6     6    187.8     8.2   1009.8  0.00  
 263    7:30   34.0    61   95.4     6    191.5     7.4   1009.8  0.00  
 263    7:40   40.0    61   94.9     6    165.2     9.1   1009.8  0.00  
 263    7:50   47.0    61   94.4     7    158.9     9.4   1009.8  0.00  
 263    8:00   53.0    61   94.0     7    156.3    10.2   1009.8  0.00  
 263    8:10   60.0    62   93.4     7    164.5     9.8   1009.8  0.00  
 263    8:20   70.0    62   93.0     7    169.1    10.5   1010.2  0.00  
 263    8:30   89.0    62   92.0     9    168.4    12.6   1010.2  0.00  
 263    8:40   66.0    62   91.6     9    161.9    12.8   1010.5  0.00  
 263    8:50   78.0    62   91.4    10    161.7    13.5   1010.5  0.00  
 263    9:00   79.0    62   90.7     9    160.9    12.6   1010.5  0.00  
 263    9:10   99.0    62   90.4     9    143.5    13.1   1010.5  0.00  
 263    9:20   93.0    62   90.3     8    161.5    12.4   1010.8  0.00  
 263    9:30   90.0    62   90.6    10    158.7    12.7   1010.8  0.00  
 263    9:40  105.0    62   90.6     9    160.6    11.8   1010.8  0.00  
 263    9:50   97.0    62   90.7     8    160.8    12.3   1010.8  0.00  
 263   10:00   97.0    62   91.1     9    157.7    12.9   1010.8  0.00  
 263   10:10   88.0    62   91.3     8    161.0    11.9   1010.8  0.00  
 263   10:20   89.0    62   91.6    10    176.9    12.1   1010.8  0.00  
 263   10:30  100.0    62   91.1     8    175.0    12.6   1011.2  0.00  
 263   10:40  109.0    62   90.5    10    161.7    13.4   1010.8  0.00  
 263   10:50  129.0    63   89.6    10    164.3    12.5   1010.8  0.00  
 263   11:00  137.0    63   88.5     9    166.7    13.6   1010.8  0.00  
 263   11:10  154.0    64   86.8    10    175.4    12.9   1010.8  0.00  
 263   11:20  174.0    64   85.4     9    184.0    12.1   1010.8  0.00  
 263   11:30  170.0    64   84.8     8    165.1    12.6   1010.8  0.00  
 263   11:40  168.0    64   85.0     9    158.3    12.9   1010.8  0.00  
 263   11:50  189.0    64   84.2     9    156.4    12.2   1010.8  0.00  
 263   12:00  208.0    64   82.8     9    171.3    12.6   1010.8  0.00  
 263   12:10  200.0    64   82.7     8    163.6    13.4   1010.8  0.00  
 263   12:20  196.0    64   82.6     8    166.1    13.2   1010.8  0.00  
 263   12:30  202.0    65   82.1     8    160.0    11.9   1010.8  0.00  
 263   12:40  213.0    65   81.0     8    153.8    12.0   1010.5  0.00  
 263   12:50  218.0    65   80.4     7    181.2    11.8   1010.5  0.00  
 263   13:00  277.0    65   80.0     8    160.9    12.1   1010.5  0.00  
 263   13:10  245.0    65   80.9     7    151.6    10.7   1010.5  0.00  
 263   13:20  274.0    66   79.9     7    169.0    10.4   1010.5  0.00  
 263   13:30  267.0    66   79.2     6    174.2     9.1   1010.5  0.00  
 263   13:40  282.0    66   78.1     6    187.7     9.8   1010.2  0.00  
 263   13:50  271.0    66   77.9     6    182.8    11.2   1010.2  0.00  
 263   14:00  263.0    67   77.5     6    186.5    10.8   1010.2  0.00  
 263   14:10  265.0    66   77.2     8    167.8    11.0   1010.2  0.00  
 263   14:20  270.0    66   77.9     6    179.8    10.7   1010.2  0.00  
 263   14:30  250.0    66   78.1     8    184.5    10.9   1010.2  0.00  
 263   14:40  256.0    66   79.2    10    232.9    14.3   1009.8  0.00  
 263   14:50  240.0    66   80.5    10    234.1    14.1   1009.8  0.00  
 263   15:00  229.0    66   80.5    10    235.2    13.2   1009.8  0.00  
 263   15:10  247.0    65   81.8    11    237.1    13.7   1009.8  0.00  
 263   15:20  209.0    65   82.0    10    243.0    13.4   1009.8  0.00  
 263   15:30  188.0    65   81.5    10    231.4    13.5   1009.8  0.00  
 263   15:40  143.0    64   81.9     9    239.7    11.2   1009.8  0.00  
 263   15:50  117.0    64   82.5     8    209.6    11.4   1009.8  0.00  
 263   16:00   99.0    64   82.7     8    230.4    11.4   1009.5  0.00  
 263   16:10   86.0    64   83.2     8    208.3    12.6   1009.5  0.00  
 263   16:20   75.0    64   83.6     8    206.7    12.1   1009.5  0.00  
 263   16:30   68.0    64   83.7     8    235.3    12.1   1009.5  0.00  
 263   16:40   67.0    64   83.0     9    236.4    13.4   1009.5  0.00  
 263   16:50   55.0    63   82.8     7    221.5    10.9   1009.5  0.00  
 263   17:00   45.0    63   83.4     8    218.1    10.5   1009.5  0.00  
 263   17:10   36.0    63   84.3     6    249.6     8.3   1009.5  0.00  
 263   17:20   26.0    63   84.9     7    241.4    10.6   1009.5  0.00  
 263   17:30   20.0    63   85.1     7    244.6    10.0   1009.5  0.00  
 263   17:40   13.0    63   85.4     7    227.6     9.9   1009.5  0.00  
 263   17:50    7.0    63   85.6     5    220.1     9.6   1009.5  0.00  
 263   18:00    5.0    63   85.9     5    227.6     8.3   1009.8  0.00  
 263   18:10    1.0    63   85.9     7    222.2    11.0   1009.8  0.00  
 263   18:20    0.0    63   86.3     7    216.3    10.2   1009.8  0.00  
 263   18:30    0.0    63   86.2     6    220.3    11.2   1009.8  0.00  
 263   18:40    0.0    62   86.5     6    227.9     8.8   1009.8  0.00  
 263   18:50    0.0    62   86.7     7    196.8    10.2   1009.8  0.00  
 263   19:00    0.0    62   86.7     7    220.4     9.6   1010.2  0.00  
 263   19:10    0.0    62   87.0     6    219.2     8.8   1010.2  0.00  
 263   19:20    0.0    62   87.4     7    226.3    10.9   1010.2  0.00  
 263   19:30    0.0    62   87.1     6    237.5     8.3   1010.2  0.00  
 263   19:40    0.0    62   87.5     5    204.8     7.6   1010.5  0.00  
 263   19:50    0.0    62   87.5     6    203.2     7.6   1010.5  0.00  
 263   20:00    0.0    62   87.2     6    215.8     9.3   1010.8  0.00  
 263   20:10    0.0    62   87.2     6    220.3     8.3   1010.5  0.00  
 263   20:20    0.0    62   87.4     6    235.3     8.3   1010.5  0.00  
 263   20:30    0.0    62   87.2     5    203.8     8.2   1010.2  0.00  
 263   20:40    0.0    62   87.2     6    210.4     8.6   1010.2  0.00  
 263   20:50    0.0    62   86.8     5    224.2     8.3   1010.8  0.00  
 263   21:00    0.0    62   87.0     5    210.2     8.8   1010.8  0.00  
 263   21:10    0.0    62   86.9     5    202.9     8.6   1010.8  0.00  
 263   21:20    0.0    62   87.5     6    218.4    10.1   1010.8  0.00  
 263   21:30    0.0    62   87.7     5    197.5     6.3   1010.8  0.00  
 263   21:40    0.0    62   87.9     5    208.6     6.9   1010.8  0.00  
 263   21:50    0.0    62   87.8     5    226.0     8.4   1011.2  0.00  
 263   22:00    0.0    62   87.5     2    224.1     6.6   1011.2  0.00  
 263   22:10    0.0    62   87.6     4    231.5     7.3   1010.8  0.00  
 263   22:20    0.0    62   87.7     4    217.3     6.4   1010.8  0.00  
 263   22:30    0.0    62   87.6     4    224.1     5.3   1010.5  0.00  
 263   22:40    0.0    62   87.8     5    228.2     7.5   1010.5  0.00  
 263   22:50    0.0    62   87.6     5    228.5     9.9   1010.5  0.00  
 263   23:00    0.0    62   87.5     2    232.1     4.1   1010.8  0.00  
 263   23:10    0.0    62   87.6     2    239.2     4.5   1010.8  0.00  
 263   23:20    0.0    62   87.8     1     60.9     2.3   1011.2  0.00  
 263   23:30    0.0    62   87.9     2    263.1     3.4   1010.8  0.00  
 263   23:40    0.0    62   88.1     2    245.2     3.4   1010.8  0.00  
 263   23:50    0.0    62   88.5     2    247.5     3.3   1010.8  0.00  
 264    0:00    0.0    62   88.4     4    247.8     6.7   1010.8  0.00  
 264    0:10    0.0    62   87.8     5    265.3     7.4   1010.8  0.00  
 264    0:20    0.0    62   87.0     6    252.6     7.4   1010.8  0.00  
 264    0:30    0.0    62   87.0     4    250.0     6.0   1010.8  0.00  
 264    0:40    0.0    62   87.6     4    255.3     5.5   1010.8  0.00  
 264    0:50    0.0    62   87.8     4    271.5     6.8   1010.8  0.00  
 264    1:00    0.0    62   87.6     5    262.9     5.8   1010.8  0.00  
 264    1:10    0.0    62   88.0     6    287.0     8.5   1010.8  0.00  
 264    1:20    0.0    62   87.6     7    295.4     9.3   1010.8  0.00  
 264    1:30    0.0    62   87.3     8    271.2    11.0   1010.5  0.00  
 264    1:40    0.0    62   87.3     6    283.0    10.6   1010.8  0.00  
 264    1:50    0.0    62   87.0     8    277.9     9.9   1010.8  0.00  
 264    2:00    0.0    62   86.7     7    269.6     8.6   1010.5  0.00  
 264    2:10    0.0    62   86.5     6    286.4    10.5   1010.5  0.00  
 264    2:20    0.0    62   86.5     6    279.5     9.0   1010.5  0.00  
 264    2:30    0.0    62   86.4     6    275.6     8.2   1010.5  0.00  
 264    2:40    0.0    62   85.7     6    275.6     9.7   1010.5  0.00  
 264    2:50    0.0    62   85.7     5    278.8     9.3   1010.2  0.00  
 264    3:00    0.0    62   86.2     6    258.8     8.0   1010.2  0.00  
 264    3:10    0.0    62   87.0     6    263.0     8.6   1010.2  0.00  
 264    3:20    0.0    62   86.8     6    265.5     8.1   1010.2  0.00  

Return to Pt. Reyes graphs page.


Western Regional Climate Center,wrcc@dri.edu